Matara, Argentina
Current Conditions -  °F | °C
As of 10:00 PM on Friday 19 Dec 2014 (Local Time) from SANT Reporting Station
Clear Clear  
Wind Chill: 79°   Ceiling: Unl
Heat Index: 81°   Visibility: 6mi
Dew Point: 70°   Wind: 3mph
Humidity: 74%   Direction: 230°SW
Pressure: 29.56"   Gusts: NA
Location:  28.2°S, 63.14°W
Report Text: SANT 200100Z 23003KT CAVOK 26/21 Q1001
Loading
Personal Weather Stations






























Interactive Weather Map New forecast layout! Learn more

10-Day Weather Forecast

Advertisements
Track Severe Weather on mobile